sensor_id;sensor_type;location;lat;lon;timestamp;pressure;altitude;pressure_sealevel;temperature;humidity
9474;BME280;8865;47.636;7.692;2023-01-25T00:02:08;99717.44;;;3.99;100.00
9474;BME280;8865;47.636;7.692;2023-01-25T00:04:34;99719.97;;;4.00;100.00
9474;BME280;8865;47.636;7.692;2023-01-25T00:07:00;99709.59;;;4.00;100.00
9474;BME280;8865;47.636;7.692;2023-01-25T00:09:26;99713.03;;;4.01;100.00
9474;BME280;8865;47.636;7.692;2023-01-25T00:11:52;99725.16;;;4.00;100.00
9474;BME280;8865;47.636;7.692;2023-01-25T00:14:20;99713.94;;;4.00;100.00
9474;BME280;8865;47.636;7.692;2023-01-25T00:16:46;99712.19;;;4.00;100.00
9474;BME280;8865;47.636;7.692;2023-01-25T00:19:16;99705.25;;;4.01;100.00
9474;BME280;8865;47.636;7.692;2023-01-25T00:21:41;99708.72;;;4.01;100.00
9474;BME280;8865;47.636;7.692;2023-01-25T00:24:08;99707.72;;;4.04;100.00
9474;BME280;8865;47.636;7.692;2023-01-25T00:26:36;99699.97;;;4.04;100.00
9474;BME280;8865;47.636;7.692;2023-01-25T00:29:04;99700.75;;;4.06;100.00
9474;BME280;8865;47.636;7.692;2023-01-25T00:36:50;99694.03;;;4.00;100.00
9474;BME280;8865;47.636;7.692;2023-01-25T00:39:19;99682.78;;;4.01;100.00
9474;BME280;8865;47.636;7.692;2023-01-25T00:41:45;99691.56;;;3.97;100.00
9474;BME280;8865;47.636;7.692;2023-01-25T00:44:11;99688.19;;;3.95;100.00
9474;BME280;8865;47.636;7.692;2023-01-25T00:46:38;99683.00;;;3.95;100.00
9474;BME280;8865;47.636;7.692;2023-01-25T00:49:04;99683.84;;;3.96;100.00
9474;BME280;8865;47.636;7.692;2023-01-25T00:51:30;99678.66;;;3.96;100.00
9474;BME280;8865;47.636;7.692;2023-01-25T00:53:56;99676.13;;;3.94;100.00
9474;BME280;8865;47.636;7.692;2023-01-25T00:56:22;99681.34;;;3.92;100.00
9474;BME280;8865;47.636;7.692;2023-01-25T00:58:51;99683.28;;;3.87;100.00
9474;BME280;8865;47.636;7.692;2023-01-25T01:01:17;99685.00;;;3.87;100.00
9474;BME280;8865;47.636;7.692;2023-01-25T01:03:43;99686.09;;;3.81;100.00
9474;BME280;8865;47.636;7.692;2023-01-25T01:06:10;99681.53;;;3.88;100.00
9474;BME280;8865;47.636;7.692;2023-01-25T01:08:40;99679.66;;;3.91;100.00
9474;BME280;8865;47.636;7.692;2023-01-25T01:11:08;99679.66;;;3.91;100.00
9474;BME280;8865;47.636;7.692;2023-01-25T01:13:36;99675.41;;;3.90;100.00
9474;BME280;8865;47.636;7.692;2023-01-25T01:16:04;99672.00;;;3.88;100.00
9474;BME280;8865;47.636;7.692;2023-01-25T01:18:34;99676.41;;;3.86;100.00
9474;BME280;8865;47.636;7.692;2023-01-25T01:21:00;99677.38;;;3.82;100.00
9474;BME280;8865;47.636;7.692;2023-01-25T01:23:27;99681.56;;;3.86;100.00
9474;BME280;8865;47.636;7.692;2023-01-25T01:25:53;99679.09;;;3.83;100.00
9474;BME280;8865;47.636;7.692;2023-01-25T01:28:20;99674.69;;;3.85;100.00
9474;BME280;8865;47.636;7.692;2023-01-25T01:30:46;99673.25;;;3.78;100.00
9474;BME280;8865;47.636;7.692;2023-01-25T01:33:12;99679.16;;;3.82;100.00
9474;BME280;8865;47.636;7.692;2023-01-25T01:35:38;99679.88;;;3.85;100.00
9474;BME280;8865;47.636;7.692;2023-01-25T01:38:04;99679.75;;;3.88;100.00
9474;BME280;8865;47.636;7.692;2023-01-25T01:40:30;99673.69;;;3.89;100.00
9474;BME280;8865;47.636;7.692;2023-01-25T01:42:59;99668.63;;;3.86;100.00
9474;BME280;8865;47.636;7.692;2023-01-25T01:48:35;99662.25;;;3.95;100.00
9474;BME280;8865;47.636;7.692;2023-01-25T01:51:19;99659.78;;;3.92;100.00
9474;BME280;8865;47.636;7.692;2023-01-25T01:53:56;99652.97;;;3.89;100.00
9474;BME280;8865;47.636;7.692;2023-01-25T01:56:33;99653.78;;;3.90;100.00
9474;BME280;8865;47.636;7.692;2023-01-25T01:59:01;99661.50;;;3.91;100.00
9474;BME280;8865;47.636;7.692;2023-01-25T02:01:27;99666.59;;;3.94;100.00
9474;BME280;8865;47.636;7.692;2023-01-25T02:03:54;99663.03;;;3.97;100.00
9474;BME280;8865;47.636;7.692;2023-01-25T02:06:41;99662.16;;;3.98;100.00
9474;BME280;8865;47.636;7.692;2023-01-25T02:09:12;99655.28;;;3.97;100.00
9474;BME280;8865;47.636;7.692;2023-01-25T02:11:43;99657.13;;;3.93;100.00
9474;BME280;8865;47.636;7.692;2023-01-25T02:14:09;99667.28;;;4.00;100.00
9474;BME280;8865;47.636;7.692;2023-01-25T02:16:35;99651.63;;;4.03;100.00
9474;BME280;8865;47.636;7.692;2023-01-25T02:19:06;99662.00;;;4.03;100.00
9474;BME280;8865;47.636;7.692;2023-01-25T02:21:38;99655.16;;;4.00;100.00
9474;BME280;8865;47.636;7.692;2023-01-25T02:24:26;99663.03;;;3.97;100.00
9474;BME280;8865;47.636;7.692;2023-01-25T02:26:54;99657.13;;;3.93;100.00
9474;BME280;8865;47.636;7.692;2023-01-25T02:29:28;99661.50;;;3.91;100.00
9474;BME280;8865;47.636;7.692;2023-01-25T02:32:04;99656.28;;;3.93;100.00
9474;BME280;8865;47.636;7.692;2023-01-25T02:34:30;99666.69;;;3.91;100.00
9474;BME280;8865;47.636;7.692;2023-01-25T02:36:59;99663.09;;;3.96;100.00
9474;BME280;8865;47.636;7.692;2023-01-25T02:39:25;99655.28;;;3.97;100.00
9474;BME280;8865;47.636;7.692;2023-01-25T02:41:52;99647.44;;;3.99;100.00
9474;BME280;8865;47.636;7.692;2023-01-25T02:44:30;99649.97;;;4.00;100.00
9474;BME280;8865;47.636;7.692;2023-01-25T02:46:57;99644.78;;;4.00;100.00
9474;BME280;8865;47.636;7.692;2023-01-25T02:49:23;99645.50;;;4.04;100.00
9474;BME280;8865;47.636;7.692;2023-01-25T02:51:52;99636.06;;;4.03;100.00
9474;BME280;8865;47.636;7.692;2023-01-25T02:54:23;99635.13;;;4.04;100.00
9474;BME280;8865;47.636;7.692;2023-01-25T02:56:50;99631.00;;;4.00;100.00
9474;BME280;8865;47.636;7.692;2023-01-25T02:59:19;99636.34;;;3.95;100.00
9474;BME280;8865;47.636;7.692;2023-01-25T03:01:45;99634.59;;;3.96;100.00
9474;BME280;8865;47.636;7.692;2023-01-25T03:04:11;99635.38;;;3.98;100.00
9474;BME280;8865;47.636;7.692;2023-01-25T03:06:40;99629.28;;;3.99;100.00
9474;BME280;8865;47.636;7.692;2023-01-25T03:09:08;99636.19;;;4.00;100.00
9474;BME280;8865;47.636;7.692;2023-01-25T03:11:35;99631.88;;;3.99;100.00
9474;BME280;8865;47.636;7.692;2023-01-25T03:14:03;99637.00;;;4.00;100.00
9474;BME280;8865;47.636;7.692;2023-01-25T03:16:30;99636.19;;;4.00;100.00
9474;BME280;8865;47.636;7.692;2023-01-25T03:18:56;99637.84;;;4.01;100.00
9474;BME280;8865;47.636;7.692;2023-01-25T03:21:23;99631.78;;;4.02;100.00
9474;BME280;8865;47.636;7.692;2023-01-25T03:23:59;99633.53;;;4.01;100.00
9474;BME280;8865;47.636;7.692;2023-01-25T03:26:29;99625.69;;;4.03;100.00
9474;BME280;8865;47.636;7.692;2023-01-25T03:28:55;99625.63;;;4.04;100.00
9474;BME280;8865;47.636;7.692;2023-01-25T03:31:21;99629.13;;;4.03;100.00
9474;BME280;8865;47.636;7.692;2023-01-25T03:33:50;99620.50;;;4.03;100.00
9474;BME280;8865;47.636;7.692;2023-01-25T03:36:16;99611.91;;;4.01;100.00
9474;BME280;8865;47.636;7.692;2023-01-25T03:38:42;99610.19;;;4.01;100.00
9474;BME280;8865;47.636;7.692;2023-01-25T03:41:11;99615.50;;;3.98;100.00
9474;BME280;8865;47.636;7.692;2023-01-25T03:43:38;99616.56;;;3.92;100.00
9474;BME280;8865;47.636;7.692;2023-01-25T03:46:04;99614.06;;;3.89;100.00
9474;BME280;8865;47.636;7.692;2023-01-25T03:48:30;99609.84;;;3.87;100.00
9474;BME280;8865;47.636;7.692;2023-01-25T03:50:57;99602.94;;;3.87;100.00
9474;BME280;8865;47.636;7.692;2023-01-25T03:53:26;99611.47;;;3.89;100.00
9474;BME280;8865;47.636;7.692;2023-01-25T03:56:11;99609.78;;;3.88;100.00
9474;BME280;8865;47.636;7.692;2023-01-25T03:58:47;99612.44;;;3.87;100.00
9474;BME280;8865;47.636;7.692;2023-01-25T04:01:13;99608.13;;;3.87;100.00
9474;BME280;8865;47.636;7.692;2023-01-25T04:03:42;99601.22;;;3.86;100.00
9474;BME280;8865;47.636;7.692;2023-01-25T04:06:08;99603.88;;;3.85;100.00
9474;BME280;8865;47.636;7.692;2023-01-25T04:08:34;99603.09;;;3.83;100.00
9474;BME280;8865;47.636;7.692;2023-01-25T04:11:10;99597.06;;;3.82;100.00
9474;BME280;8865;47.636;7.692;2023-01-25T04:13:37;99597.97;;;3.81;100.00
9474;BME280;8865;47.636;7.692;2023-01-25T04:16:09;99598.13;;;3.77;100.00
9474;BME280;8865;47.636;7.692;2023-01-25T04:18:38;99598.09;;;3.78;100.00
9474;BME280;8865;47.636;7.692;2023-01-25T04:21:05;99595.44;;;3.80;100.00
9474;BME280;8865;47.636;7.692;2023-01-25T04:23:31;99591.09;;;3.80;100.00
9474;BME280;8865;47.636;7.692;2023-01-25T04:26:05;99586.75;;;3.81;100.00
9474;BME280;8865;47.636;7.692;2023-01-25T04:28:35;99588.38;;;3.83;100.00
9474;BME280;8865;47.636;7.692;2023-01-25T04:31:01;99577.91;;;3.86;100.00
9474;BME280;8865;47.636;7.692;2023-01-25T04:33:28;99576.31;;;3.82;100.00
9474;BME280;8865;47.636;7.692;2023-01-25T04:35:54;99574.66;;;3.81;100.00
9474;BME280;8865;47.636;7.692;2023-01-25T04:38:20;99575.44;;;3.83;100.00
9474;BME280;8865;47.636;7.692;2023-01-25T04:40:46;99572.91;;;3.82;100.00
9474;BME280;8865;47.636;7.692;2023-01-25T04:43:13;99568.00;;;3.74;100.00
9474;BME280;8865;47.636;7.692;2023-01-25T04:45:40;99567.00;;;3.78;100.00
9474;BME280;8865;47.636;7.692;2023-01-25T04:48:08;99558.53;;;3.73;100.00
9474;BME280;8865;47.636;7.692;2023-01-25T04:50:41;99557.50;;;3.77;100.00
9474;BME280;8865;47.636;7.692;2023-01-25T04:53:08;99562.81;;;3.74;100.00
9474;BME280;8865;47.636;7.692;2023-01-25T04:55:34;99562.81;;;3.74;100.00
9474;BME280;8865;47.636;7.692;2023-01-25T04:58:01;99564.44;;;3.77;100.00
9474;BME280;8865;47.636;7.692;2023-01-25T05:00:27;99564.44;;;3.77;100.00
9474;BME280;8865;47.636;7.692;2023-01-25T05:02:56;99566.13;;;3.78;100.00
9474;BME280;8865;47.636;7.692;2023-01-25T05:05:22;99559.28;;;3.77;100.00
9474;BME280;8865;47.636;7.692;2023-01-25T05:07:48;99563.66;;;3.74;100.00
9474;BME280;8865;47.636;7.692;2023-01-25T05:10:14;99558.41;;;3.76;100.00
9474;BME280;8865;47.636;7.692;2023-01-25T05:12:42;99561.81;;;3.78;100.00
9474;BME280;8865;47.636;7.692;2023-01-25T05:15:11;99559.38;;;3.73;100.00
9474;BME280;8865;47.636;7.692;2023-01-25T05:17:37;99565.41;;;3.74;100.00
9474;BME280;8865;47.636;7.692;2023-01-25T05:20:03;99569.75;;;3.73;100.00
9474;BME280;8865;47.636;7.692;2023-01-25T05:22:33;99572.28;;;3.75;100.00
9474;BME280;8865;47.636;7.692;2023-01-25T05:24:58;99574.22;;;3.68;100.00
9474;BME280;8865;47.636;7.692;2023-01-25T05:27:26;99575.09;;;3.69;100.00
9474;BME280;8865;47.636;7.692;2023-01-25T05:29:53;99579.38;;;3.70;100.00
9474;BME280;8865;47.636;7.692;2023-01-25T05:32:23;99572.50;;;3.69;100.00
9474;BME280;8865;47.636;7.692;2023-01-25T05:34:49;99577.63;;;3.70;100.00
9474;BME280;8865;47.636;7.692;2023-01-25T05:37:22;99579.19;;;3.74;100.00
9474;BME280;8865;47.636;7.692;2023-01-25T05:39:51;99587.03;;;3.73;100.00
9474;BME280;8865;47.636;7.692;2023-01-25T05:42:17;99574.06;;;3.73;100.00
9474;BME280;8865;47.636;7.692;2023-01-25T05:44:44;99576.31;;;3.58;100.00
9474;BME280;8865;47.636;7.692;2023-01-25T05:47:15;99577.69;;;3.69;100.00
9474;BME280;8865;47.636;7.692;2023-01-25T05:49:41;99568.88;;;3.73;100.00
9474;BME280;8865;47.636;7.692;2023-01-25T05:52:15;99577.47;;;3.75;100.00
9474;BME280;8865;47.636;7.692;2023-01-25T05:54:44;99571.53;;;3.71;100.00
9474;BME280;8865;47.636;7.692;2023-01-25T05:57:12;99569.09;;;3.67;100.00
9474;BME280;8865;47.636;7.692;2023-01-25T05:59:38;99565.97;;;3.58;100.00
9474;BME280;8865;47.636;7.692;2023-01-25T06:02:04;99565.19;;;3.56;100.00
9474;BME280;8865;47.636;7.692;2023-01-25T06:04:30;99560.84;;;3.57;100.00
9474;BME280;8865;47.636;7.692;2023-01-25T06:06:56;99568.50;;;3.60;100.00
9474;BME280;8865;47.636;7.692;2023-01-25T06:09:22;99562.25;;;3.66;100.00
9474;BME280;8865;47.636;7.692;2023-01-25T06:11:51;99569.28;;;3.62;100.00
9474;BME280;8865;47.636;7.692;2023-01-25T06:14:17;99564.09;;;3.62;100.00
9474;BME280;8865;47.636;7.692;2023-01-25T06:16:43;99560.56;;;3.65;100.00
9474;BME280;8865;47.636;7.692;2023-01-25T06:19:12;99560.78;;;3.58;100.00
9474;BME280;8865;47.636;7.692;2023-01-25T06:21:38;99557.19;;;3.63;100.00
9474;BME280;8865;47.636;7.692;2023-01-25T06:24:05;99554.59;;;3.63;100.00
9474;BME280;8865;47.636;7.692;2023-01-25T06:26:33;99548.94;;;3.51;100.00
9474;BME280;8865;47.636;7.692;2023-01-25T06:28:59;99561.78;;;3.54;100.00
9474;BME280;8865;47.636;7.692;2023-01-25T06:31:25;99557.34;;;3.58;100.00
9474;BME280;8865;47.636;7.692;2023-01-25T06:33:51;99553.22;;;3.52;100.00
9474;BME280;8865;47.636;7.692;2023-01-25T06:36:20;99555.72;;;3.55;100.00
9474;BME280;8865;47.636;7.692;2023-01-25T06:38:47;99564.16;;;3.61;100.00
9474;BME280;8865;47.636;7.692;2023-01-25T06:41:14;99557.53;;;3.53;100.00
9474;BME280;8865;47.636;7.692;2023-01-25T06:43:44;99561.72;;;3.56;100.00
9474;BME280;8865;47.636;7.692;2023-01-25T06:46:16;99553.91;;;3.57;100.00
9474;BME280;8865;47.636;7.692;2023-01-25T06:48:50;99554.75;;;3.58;100.00
9474;BME280;8865;47.636;7.692;2023-01-25T06:51:16;99553.84;;;3.59;100.00
9474;BME280;8865;47.636;7.692;2023-01-25T06:53:54;99558.19;;;3.58;100.00
9474;BME280;8865;47.636;7.692;2023-01-25T06:56:23;99549.66;;;3.56;100.00
9474;BME280;8865;47.636;7.692;2023-01-25T06:58:51;99542.75;;;3.55;100.00
9474;BME280;8865;47.636;7.692;2023-01-25T07:01:21;99550.47;;;3.57;100.00
9474;BME280;8865;47.636;7.692;2023-01-25T07:03:55;99543.66;;;3.54;100.00
9474;BME280;8865;47.636;7.692;2023-01-25T07:06:25;99538.53;;;3.53;100.00
9474;BME280;8865;47.636;7.692;2023-01-25T07:09:08;99547.16;;;3.53;100.00
9474;BME280;8865;47.636;7.692;2023-01-25T07:11:35;99544.56;;;3.53;100.00
9474;BME280;8865;47.636;7.692;2023-01-25T07:14:02;99539.41;;;3.53;100.00
9474;BME280;8865;47.636;7.692;2023-01-25T07:16:28;99545.34;;;3.55;100.00
9474;BME280;8865;47.636;7.692;2023-01-25T07:19:10;99549.00;;;3.50;100.00
9474;BME280;8865;47.636;7.692;2023-01-25T07:21:38;99547.59;;;3.41;100.00
9474;BME280;8865;47.636;7.692;2023-01-25T07:24:15;99546.34;;;3.51;100.00
9474;BME280;8865;47.636;7.692;2023-01-25T07:26:41;99538.91;;;3.42;100.00
9474;BME280;8865;47.636;7.692;2023-01-25T07:29:17;99544.84;;;3.46;100.00
9474;BME280;8865;47.636;7.692;2023-01-25T07:31:46;99537.03;;;3.47;100.00
9474;BME280;8865;47.636;7.692;2023-01-25T07:34:12;99532.97;;;3.40;100.00
9474;BME280;8865;47.636;7.692;2023-01-25T07:36:42;99534.72;;;3.39;100.00
9474;BME280;8865;47.636;7.692;2023-01-25T07:39:11;99529.47;;;3.41;100.00
9474;BME280;8865;47.636;7.692;2023-01-25T07:41:39;99531.84;;;3.47;100.00
9474;BME280;8865;47.636;7.692;2023-01-25T07:44:05;99530.09;;;3.48;100.00
9474;BME280;8865;47.636;7.692;2023-01-25T07:46:31;99530.16;;;3.46;100.00
9474;BME280;8865;47.636;7.692;2023-01-25T07:48:58;99533.34;;;3.53;100.00
9474;BME280;8865;47.636;7.692;2023-01-25T07:51:24;99538.47;;;3.54;100.00
9474;BME280;8865;47.636;7.692;2023-01-25T07:53:56;99528.00;;;3.57;100.00
9474;BME280;8865;47.636;7.692;2023-01-25T07:56:27;99545.28;;;3.57;100.00
9474;BME280;8865;47.636;7.692;2023-01-25T07:58:55;99532.47;;;3.54;100.00
9474;BME280;8865;47.636;7.692;2023-01-25T08:01:24;99535.81;;;3.56;100.00
9474;BME280;8865;47.636;7.692;2023-01-25T08:03:50;99533.19;;;3.57;100.00
9474;BME280;8865;47.636;7.692;2023-01-25T08:06:25;99536.22;;;3.45;100.00
9474;BME280;8865;47.636;7.692;2023-01-25T08:08:57;99538.59;;;3.51;100.00
9474;BME280;8865;47.636;7.692;2023-01-25T08:11:28;99540.28;;;3.52;100.00
9474;BME280;8865;47.636;7.692;2023-01-25T08:13:54;99539.00;;;3.64;100.00
9474;BME280;8865;47.636;7.692;2023-01-25T08:16:23;99533.34;;;3.77;100.00
9474;BME280;8865;47.636;7.692;2023-01-25T08:18:52;99533.13;;;3.83;100.00
9474;BME280;8865;47.636;7.692;2023-01-25T08:21:20;99531.97;;;3.90;100.00
9474;BME280;8865;47.636;7.692;2023-01-25T08:23:48;99533.13;;;3.83;100.00
9474;BME280;8865;47.636;7.692;2023-01-25T08:26:14;99529.38;;;3.90;100.00
9474;BME280;8865;47.636;7.692;2023-01-25T08:28:41;99526.59;;;3.94;100.00
9474;BME280;8865;47.636;7.692;2023-01-25T08:33:34;99522.59;;;4.09;100.00
9474;BME280;8865;47.636;7.692;2023-01-25T08:36:01;99517.47;;;4.08;100.00
9474;BME280;8865;47.636;7.692;2023-01-25T08:38:27;99526.75;;;4.14;100.00
9474;BME280;8865;47.636;7.692;2023-01-25T08:40:53;99523.06;;;4.19;100.00
9474;BME280;8865;47.636;7.692;2023-01-25T08:43:19;99516.13;;;4.20;100.00
9474;BME280;8865;47.636;7.692;2023-01-25T08:45:47;99505.78;;;4.20;100.00
9474;BME280;8865;47.636;7.692;2023-01-25T08:48:20;99503.00;;;4.24;100.00
9474;BME280;8865;47.636;7.692;2023-01-25T08:50:46;99502.19;;;4.00;100.00
9474;BME280;8865;47.636;7.692;2023-01-25T08:53:12;99507.56;;;4.18;100.00
9474;BME280;8865;47.636;7.692;2023-01-25T08:55:38;99498.03;;;4.18;100.00
9474;BME280;8865;47.636;7.692;2023-01-25T08:58:09;99499.91;;;4.15;100.00
9474;BME280;8865;47.636;7.692;2023-01-25T09:00:39;99501.13;;;4.06;100.00
9474;BME280;8865;47.636;7.692;2023-01-25T09:03:06;99504.19;;;3.93;100.00
9474;BME280;8865;47.636;7.692;2023-01-25T09:05:33;99496.66;;;3.87;100.00
9474;BME280;8865;47.636;7.692;2023-01-25T09:08:01;99494.78;;;3.91;100.00
9474;BME280;8865;47.636;7.692;2023-01-25T09:10:27;99492.00;;;3.96;100.00
9474;BME280;8865;47.636;7.692;2023-01-25T09:12:53;99493.09;;;4.12;100.00
9474;BME280;8865;47.636;7.692;2023-01-25T09:15:19;99496.66;;;4.32;100.00
9474;BME280;8865;47.636;7.692;2023-01-25T09:17:45;99498.31;;;4.33;100.00
9474;BME280;8865;47.636;7.692;2023-01-25T09:20:11;99489.34;;;4.41;100.00
9474;BME280;8865;47.636;7.692;2023-01-25T09:22:37;99483.06;;;4.47;100.00
9474;BME280;8865;47.636;7.692;2023-01-25T09:25:05;99492.00;;;4.60;100.00
9474;BME280;8865;47.636;7.692;2023-01-25T09:27:31;99494.41;;;4.65;100.00
9474;BME280;8865;47.636;7.692;2023-01-25T09:29:57;99489.44;;;4.81;100.00
9474;BME280;8865;47.636;7.692;2023-01-25T09:32:23;99490.06;;;4.86;100.00
9474;BME280;8865;47.636;7.692;2023-01-25T09:34:49;99484.16;;;4.82;100.00
9474;BME280;8865;47.636;7.692;2023-01-25T09:37:15;99482.47;;;4.81;100.00
9474;BME280;8865;47.636;7.692;2023-01-25T09:39:41;99483.75;;;4.71;100.00
9474;BME280;8865;47.636;7.692;2023-01-25T09:45:32;99477.47;;;4.97;100.00
9474;BME280;8865;47.636;7.692;2023-01-25T09:48:08;99480.25;;;5.13;100.00
9474;BME280;8865;47.636;7.692;2023-01-25T09:53:30;99478.13;;;5.22;100.00
9474;BME280;8865;47.636;7.692;2023-01-25T09:56:03;99479.19;;;5.17;100.00
9474;BME280;8865;47.636;7.692;2023-01-25T09:58:37;99478.34;;;5.17;100.00
9474;BME280;8865;47.636;7.692;2023-01-25T10:06:24;99472.75;;;5.26;100.00
9474;BME280;8865;47.636;7.692;2023-01-25T10:09:01;99466.84;;;5.23;100.00
9474;BME280;8865;47.636;7.692;2023-01-25T10:11:31;99458.00;;;5.27;100.00
9474;BME280;8865;47.636;7.692;2023-01-25T10:13:58;99458.63;;;5.32;100.00
9474;BME280;8865;47.636;7.692;2023-01-25T10:16:29;99452.41;;;5.36;100.00
9474;BME280;8865;47.636;7.692;2023-01-25T10:21:56;99459.25;;;5.18;100.00
9474;BME280;8865;47.636;7.692;2023-01-25T10:29:38;99456.31;;;5.45;100.00
9474;BME280;8865;47.636;7.692;2023-01-25T10:32:27;99444.94;;;5.47;100.00
9474;BME280;8865;47.636;7.692;2023-01-25T10:34:56;99417.41;;;5.43;100.00
9474;BME280;8865;47.636;7.692;2023-01-25T10:37:29;99422.81;;;5.19;100.00
9474;BME280;8865;47.636;7.692;2023-01-25T10:42:35;99420.66;;;5.29;100.00
9474;BME280;8865;47.636;7.692;2023-01-25T10:45:14;99421.38;;;5.33;100.00
9474;BME280;8865;47.636;7.692;2023-01-25T10:47:47;99421.38;;;5.33;100.00
9474;BME280;8865;47.636;7.692;2023-01-25T10:53:36;99425.56;;;5.35;100.00
9474;BME280;8865;47.636;7.692;2023-01-25T10:56:14;99412.44;;;5.39;100.00
9474;BME280;8865;47.636;7.692;2023-01-25T10:58:46;99409.75;;;5.40;100.00
9474;BME280;8865;47.636;7.692;2023-01-25T11:03:52;99399.22;;;5.62;100.00
9474;BME280;8865;47.636;7.692;2023-01-25T11:06:45;99393.22;;;5.60;100.00
9474;BME280;8865;47.636;7.692;2023-01-25T11:09:33;99405.13;;;5.47;100.00
9474;BME280;8865;47.636;7.692;2023-01-25T11:12:14;99401.81;;;5.62;100.00
9474;BME280;8865;47.636;7.692;2023-01-25T11:14:41;99387.50;;;5.53;100.00
9474;BME280;8865;47.636;7.692;2023-01-25T11:17:27;99389.84;;;5.41;100.00
9474;BME280;8865;47.636;7.692;2023-01-25T11:20:09;99372.47;;;5.22;100.00
9474;BME280;8865;47.636;7.692;2023-01-25T11:22:54;99382.66;;;5.08;100.00
9474;BME280;8865;47.636;7.692;2023-01-25T11:28:29;99376.56;;;5.47;100.00
9474;BME280;8865;47.636;7.692;2023-01-25T11:30:55;99370.13;;;5.54;100.00
9474;BME280;8865;47.636;7.692;2023-01-25T11:33:21;99371.69;;;5.58;100.00
9474;BME280;8865;47.636;7.692;2023-01-25T11:38:36;99354.47;;;5.55;100.00
9474;BME280;8865;47.636;7.692;2023-01-25T11:41:11;99355.84;;;5.45;100.00
9474;BME280;8865;47.636;7.692;2023-01-25T11:46:30;99361.22;;;5.60;100.00
9474;BME280;8865;47.636;7.692;2023-01-25T11:49:02;99353.53;;;5.39;100.00
9474;BME280;8865;47.636;7.692;2023-01-25T12:02:58;99317.59;;;5.30;100.00
9474;BME280;8865;47.636;7.692;2023-01-25T12:09:10;99311.81;;;5.42;100.00
9474;BME280;8865;47.636;7.692;2023-01-25T12:17:44;99299.34;;;5.31;100.00
9474;BME280;8865;47.636;7.692;2023-01-25T12:23:14;99293.56;;;5.44;100.00
9474;BME280;8865;47.636;7.692;2023-01-25T12:26:15;99287.19;;;5.32;100.00
9474;BME280;8865;47.636;7.692;2023-01-25T12:29:08;99284.31;;;5.19;100.00
9474;BME280;8865;47.636;7.692;2023-01-25T12:31:44;99284.84;;;4.89;100.00
9474;BME280;8865;47.636;7.692;2023-01-25T12:34:33;99276.28;;;5.06;100.00
9474;BME280;8865;47.636;7.692;2023-01-25T12:37:17;99267.50;;;5.09;100.00
9474;BME280;8865;47.636;7.692;2023-01-25T12:39:57;99261.19;;;4.95;100.00
9474;BME280;8865;47.636;7.692;2023-01-25T12:42:33;99264.41;;;5.00;100.00
9474;BME280;8865;47.636;7.692;2023-01-25T12:45:21;99257.03;;;5.10;100.00
9474;BME280;8865;47.636;7.692;2023-01-25T12:48:22;99251.63;;;5.15;100.00
9474;BME280;8865;47.636;7.692;2023-01-25T12:50:55;99245.41;;;5.00;100.00
9474;BME280;8865;47.636;7.692;2023-01-25T12:53:31;99240.50;;;4.94;100.00
9474;BME280;8865;47.636;7.692;2023-01-25T12:55:58;99241.13;;;4.99;100.00
9474;BME280;8865;47.636;7.692;2023-01-25T12:58:42;99241.53;;;5.09;100.00
9474;BME280;8865;47.636;7.692;2023-01-25T13:01:32;99236.44;;;4.88;100.00
9474;BME280;8865;47.636;7.692;2023-01-25T13:06:44;99235.03;;;5.00;100.00
9474;BME280;8865;47.636;7.692;2023-01-25T13:09:14;99231.44;;;5.03;100.00
9474;BME280;8865;47.636;7.692;2023-01-25T13:11:44;99227.47;;;5.13;100.00
9474;BME280;8865;47.636;7.692;2023-01-25T13:16:44;99215.44;;;4.93;100.00
9474;BME280;8865;47.636;7.692;2023-01-25T13:19:40;99219.81;;;5.10;100.00
9474;BME280;8865;47.636;7.692;2023-01-25T13:22:09;99213.81;;;5.09;100.00
9474;BME280;8865;47.636;7.692;2023-01-25T13:27:29;99208.91;;;5.21;100.00
9474;BME280;8865;47.636;7.692;2023-01-25T13:38:16;99197.47;;;5.25;100.00
9474;BME280;8865;47.636;7.692;2023-01-25T13:43:38;99188.69;;;5.27;100.00
9474;BME280;8865;47.636;7.692;2023-01-25T13:46:07;99192.19;;;5.26;100.00
9474;BME280;8865;47.636;7.692;2023-01-25T13:48:44;99195.44;;;5.31;100.00
9474;BME280;8865;47.636;7.692;2023-01-25T13:51:13;99193.50;;;5.17;100.00
9474;BME280;8865;47.636;7.692;2023-01-25T13:53:40;99198.75;;;4.98;100.00
9474;BME280;8865;47.636;7.692;2023-01-25T13:56:28;99197.53;;;5.06;100.00
9474;BME280;8865;47.636;7.692;2023-01-25T13:58:54;99192.19;;;5.09;100.00
9474;BME280;8865;47.636;7.692;2023-01-25T14:01:21;99195.09;;;5.03;100.00
9474;BME280;8865;47.636;7.692;2023-01-25T14:03:55;99191.63;;;5.02;100.00
9474;BME280;8865;47.636;7.692;2023-01-25T14:06:33;99187.75;;;4.74;100.00
9474;BME280;8865;47.636;7.692;2023-01-25T14:09:09;99197.63;;;4.85;100.00
9474;BME280;8865;47.636;7.692;2023-01-25T14:11:43;99188.72;;;4.91;100.00
9474;BME280;8865;47.636;7.692;2023-01-25T14:14:33;99186.97;;;4.91;100.00
9474;BME280;8865;47.636;7.692;2023-01-25T14:19:48;99191.78;;;4.99;100.00
9474;BME280;8865;47.636;7.692;2023-01-25T14:27:58;99178.59;;;5.04;100.00
9474;BME280;8865;47.636;7.692;2023-01-25T14:30:25;99177.69;;;5.05;100.00
9474;BME280;8865;47.636;7.692;2023-01-25T14:32:54;99177.81;;;5.01;100.00
9474;BME280;8865;47.636;7.692;2023-01-25T14:37:55;99178.22;;;5.11;100.00
9474;BME280;8865;47.636;7.692;2023-01-25T14:40:23;99167.91;;;5.10;100.00
9474;BME280;8865;47.636;7.692;2023-01-25T14:42:51;99171.44;;;5.09;100.00
9474;BME280;8865;47.636;7.692;2023-01-25T14:45:19;99174.63;;;4.96;100.00
9474;BME280;8865;47.636;7.692;2023-01-25T14:47:49;99165.81;;;4.99;100.00
9474;BME280;8865;47.636;7.692;2023-01-25T14:50:31;99164.31;;;4.95;100.00
9474;BME280;8865;47.636;7.692;2023-01-25T14:52:59;99165.06;;;4.97;100.00
9474;BME280;8865;47.636;7.692;2023-01-25T14:55:31;99160.69;;;4.97;100.00
9474;BME280;8865;47.636;7.692;2023-01-25T14:57:58;99171.25;;;4.94;100.00
9474;BME280;8865;47.636;7.692;2023-01-25T15:00:27;99172.78;;;4.98;100.00
9474;BME280;8865;47.636;7.692;2023-01-25T15:02:58;99158.25;;;4.94;100.00
9474;BME280;8865;47.636;7.692;2023-01-25T15:05:30;99155.66;;;4.94;100.00
9474;BME280;8865;47.636;7.692;2023-01-25T15:08:35;99157.28;;;4.60;100.00
9474;BME280;8865;47.636;7.692;2023-01-25T15:10:59;99156.69;;;4.73;100.00
9474;BME280;8865;47.636;7.692;2023-01-25T15:13:45;99157.41;;;4.76;100.00
9474;BME280;8865;47.636;7.692;2023-01-25T15:16:11;99151.84;;;4.84;100.00
9474;BME280;8865;47.636;7.692;2023-01-25T15:18:49;99151.44;;;4.74;100.00
9474;BME280;8865;47.636;7.692;2023-01-25T15:21:31;99148.94;;;4.54;100.00